createdAt,value
2019-02-04T00:01:08.410Z,101348.70
2019-02-04T00:03:35.791Z,101346.00
2019-02-04T00:06:03.500Z,101350.29
2019-02-04T00:08:30.900Z,101352.46
2019-02-04T00:10:59.344Z,101346.78
2019-02-04T00:13:27.015Z,101344.95
2019-02-04T00:15:54.506Z,101332.45
2019-02-04T00:18:21.946Z,101327.52
2019-02-04T00:20:49.406Z,101321.95
2019-02-04T00:23:17.291Z,101329.23
2019-02-04T00:25:44.670Z,101323.64
2019-02-04T00:28:12.139Z,101323.64
2019-02-04T00:30:39.651Z,101326.28
2019-02-04T00:33:07.130Z,101329.23
2019-02-04T00:35:34.548Z,101323.62
2019-02-04T00:38:01.970Z,101323.31
2019-02-04T00:40:29.895Z,101325.45
2019-02-04T00:42:57.320Z,101328.96
2019-02-04T00:45:24.780Z,101326.09
2019-02-04T00:47:52.385Z,101327.82
2019-02-04T00:50:19.990Z,101329.51
2019-02-04T00:52:47.420Z,101330.97
2019-02-04T00:55:15.069Z,101335.35
2019-02-04T00:57:42.899Z,101339.72
2019-02-04T01:00:29.840Z,101345.39
2019-02-04T01:02:57.734Z,101336.38
2019-02-04T01:05:25.509Z,101340.00
2019-02-04T01:07:53.140Z,101341.31
2019-02-04T01:10:22.890Z,101342.30
2019-02-04T01:12:50.431Z,101350.88
2019-02-04T01:15:17.995Z,101355.31
2019-02-04T01:17:45.560Z,101352.94
2019-02-04T01:20:19.041Z,101351.17
2019-02-04T01:22:46.610Z,101353.39
2019-02-04T01:25:14.090Z,101364.63
2019-02-04T01:27:41.525Z,101369.08
2019-02-04T01:30:10.020Z,101369.02
2019-02-04T01:32:37.495Z,101376.00
2019-02-04T01:35:05.010Z,101373.88
2019-02-04T01:37:32.904Z,101372.13
2019-02-04T01:40:00.928Z,101373.55
2019-02-04T01:42:28.387Z,101377.78
2019-02-04T01:44:55.782Z,101378.37
2019-02-04T01:47:23.177Z,101378.34
2019-02-04T01:49:50.751Z,101385.77
2019-02-04T01:52:18.175Z,101386.29
2019-02-04T01:54:45.610Z,101386.56
2019-02-04T01:57:13.335Z,101387.91
2019-02-04T01:59:40.786Z,101393.67
2019-02-04T02:02:08.200Z,101392.38
2019-02-04T02:04:35.695Z,101388.70
2019-02-04T02:07:03.625Z,101400.02
2019-02-04T02:09:31.071Z,101405.59
2019-02-04T02:11:58.440Z,101403.17
2019-02-04T02:14:25.989Z,101405.61
2019-02-04T02:16:53.527Z,101406.78
2019-02-04T02:19:20.960Z,101407.59
2019-02-04T02:21:48.364Z,101413.67
2019-02-04T02:24:15.815Z,101412.84
2019-02-04T02:26:43.190Z,101418.09
2019-02-04T02:29:12.010Z,101415.12
2019-02-04T02:31:39.420Z,101414.41
2019-02-04T02:34:06.887Z,101416.63
2019-02-04T02:36:34.289Z,101418.36
2019-02-04T02:39:01.818Z,101420.37
2019-02-04T02:41:29.205Z,101415.73
2019-02-04T02:43:56.650Z,101416.49
2019-02-04T02:46:24.645Z,101409.19
2019-02-04T02:48:52.087Z,101420.42
2019-02-04T02:51:19.472Z,101411.97
2019-02-04T02:53:46.930Z,101426.44
2019-02-04T02:56:14.310Z,101422.11
2019-02-04T02:58:41.830Z,101421.27
2019-02-04T03:01:09.480Z,101418.23
2019-02-04T03:03:39.388Z,101423.80
2019-02-04T03:06:06.845Z,101424.31
2019-02-04T03:08:34.275Z,101423.10
2019-02-04T03:11:01.710Z,101429.03
2019-02-04T03:13:29.185Z,101429.41
2019-02-04T03:15:56.655Z,101427.15
2019-02-04T03:18:24.005Z,101427.27
2019-02-04T03:20:51.575Z,101432.75
2019-02-04T03:23:18.972Z,101435.28
2019-02-04T03:25:46.385Z,101434.63
2019-02-04T03:28:13.784Z,101442.67
2019-02-04T03:30:41.225Z,101434.78
2019-02-04T03:33:08.613Z,101434.30
2019-02-04T03:35:36.050Z,101435.77
2019-02-04T03:38:03.528Z,101431.05
2019-02-04T03:40:32.191Z,101431.52
2019-02-04T03:42:59.585Z,101435.77
2019-02-04T03:45:27.142Z,101433.69
2019-02-04T03:48:04.333Z,101437.37
2019-02-04T03:50:24.062Z,101437.59
2019-02-04T03:52:52.070Z,101433.61
2019-02-04T03:55:19.801Z,101442.14
2019-02-04T03:57:47.193Z,101447.25
2019-02-04T04:00:23.461Z,101430.50
2019-02-04T04:02:51.065Z,101430.25
2019-02-04T04:05:18.866Z,101433.23
2019-02-04T04:07:46.321Z,101428.53
2019-02-04T04:10:13.958Z,101435.14
2019-02-04T04:12:41.428Z,101425.78
2019-02-04T04:15:09.555Z,101434.98
2019-02-04T04:17:36.916Z,101430.83
2019-02-04T04:20:05.570Z,101431.70
2019-02-04T04:22:33.390Z,101429.97
2019-02-04T04:25:00.810Z,101437.20
2019-02-04T04:27:28.262Z,101441.60
2019-02-04T04:29:55.661Z,101449.30
2019-02-04T04:32:23.116Z,101442.89
2019-02-04T04:34:50.560Z,101447.53
2019-02-04T04:37:18.024Z,101439.34
2019-02-04T04:39:46.252Z,101447.60
2019-02-04T04:42:13.710Z,101445.41
2019-02-04T04:44:41.071Z,101440.70
2019-02-04T04:47:08.626Z,101445.03
2019-02-04T04:49:36.120Z,101443.87
2019-02-04T04:52:03.771Z,101441.60
2019-02-04T04:54:31.150Z,101442.47
2019-02-04T04:56:58.950Z,101449.83
2019-02-04T04:59:26.345Z,101450.59
2019-02-04T05:01:53.887Z,101443.59
2019-02-04T05:04:21.335Z,101452.10
2019-02-04T05:06:48.770Z,101450.42
2019-02-04T05:09:16.201Z,101441.39
2019-02-04T05:11:43.620Z,101448.31
2019-02-04T05:14:11.470Z,101444.36
2019-02-04T05:16:38.950Z,101433.56
2019-02-04T05:19:06.340Z,101433.64
2019-02-04T05:21:33.786Z,101430.19
2019-02-04T05:24:01.205Z,101430.53
2019-02-04T05:26:28.715Z,101422.36
2019-02-04T05:28:56.090Z,101422.77
2019-02-04T05:31:23.536Z,101419.34
2019-02-04T05:33:50.930Z,101419.79
2019-02-04T05:36:18.390Z,101417.11
2019-02-04T05:38:45.770Z,101426.23
2019-02-04T05:41:13.185Z,101412.42
2019-02-04T05:43:40.645Z,101409.81
2019-02-04T05:46:08.187Z,101421.13
2019-02-04T05:48:35.616Z,101425.50
2019-02-04T05:51:03.036Z,101432.88
2019-02-04T05:53:30.520Z,101432.02
2019-02-04T05:55:57.906Z,101430.11
2019-02-04T05:58:25.370Z,101422.36
2019-02-04T06:00:52.853Z,101431.36
2019-02-04T06:03:20.331Z,101426.72
2019-02-04T06:05:47.740Z,101436.30
2019-02-04T06:08:15.191Z,101425.24
2019-02-04T06:10:42.661Z,101424.58
2019-02-04T06:13:10.272Z,101425.11
2019-02-04T06:15:37.835Z,101423.95
2019-02-04T06:18:05.761Z,101422.50
2019-02-04T06:20:33.633Z,101424.05
2019-02-04T06:23:01.111Z,101427.24
2019-02-04T06:25:34.448Z,101423.72
2019-02-04T06:28:01.901Z,101417.06
2019-02-04T06:30:29.345Z,101430.25
2019-02-04T06:32:56.798Z,101435.83
2019-02-04T06:35:24.177Z,101439.31
2019-02-04T06:37:51.740Z,101450.59
2019-02-04T06:40:19.184Z,101442.55
2019-02-04T06:42:46.581Z,101454.76
2019-02-04T06:45:14.232Z,101455.60
2019-02-04T06:47:41.620Z,101464.22
2019-02-04T06:50:11.410Z,101461.69
2019-02-04T06:52:39.188Z,101456.91
2019-02-04T06:55:09.980Z,101451.27
2019-02-04T06:57:37.400Z,101455.86
2019-02-04T07:00:06.605Z,101462.83
2019-02-04T07:02:34.000Z,101463.59
2019-02-04T07:05:01.588Z,101463.15
2019-02-04T07:07:28.955Z,101463.53
2019-02-04T07:09:56.643Z,101470.89
2019-02-04T07:12:24.016Z,101469.92
2019-02-04T07:14:51.710Z,101462.09
2019-02-04T07:17:19.132Z,101468.56
2019-02-04T07:19:46.596Z,101463.69
2019-02-04T07:22:13.976Z,101470.52
2019-02-04T07:24:43.109Z,101468.18
2019-02-04T07:27:10.815Z,101468.77
2019-02-04T07:29:38.405Z,101477.11
2019-02-04T07:32:05.800Z,101465.91
2019-02-04T07:34:33.256Z,101469.06
2019-02-04T07:37:00.670Z,101459.59
2019-02-04T07:39:28.095Z,101462.02
2019-02-04T07:41:55.501Z,101452.28
2019-02-04T07:44:23.363Z,101452.22
2019-02-04T07:46:50.827Z,101457.22
2019-02-04T07:49:18.245Z,101451.59
2019-02-04T07:51:45.675Z,101442.50
2019-02-04T07:54:13.110Z,101444.66
2019-02-04T07:56:40.511Z,101433.44
2019-02-04T07:59:08.010Z,101441.62
2019-02-04T08:01:35.760Z,101437.70
2019-02-04T08:04:03.290Z,101433.84
2019-02-04T08:06:30.720Z,101433.69
2019-02-04T08:08:58.176Z,101438.17
2019-02-04T08:11:25.614Z,101432.27
2019-02-04T08:13:53.090Z,101439.75
2019-02-04T08:16:20.568Z,101426.27
2019-02-04T08:18:47.970Z,101432.55
2019-02-04T08:21:15.410Z,101419.31
2019-02-04T08:23:42.846Z,101413.78
2019-02-04T08:26:10.320Z,101424.78
2019-02-04T08:28:37.792Z,101417.64
2019-02-04T08:31:05.355Z,101414.31
2019-02-04T08:33:32.744Z,101424.20
2019-02-04T08:36:00.611Z,101427.19
2019-02-04T08:38:28.018Z,101414.48
2019-02-04T08:40:55.455Z,101422.67
2019-02-04T08:43:22.886Z,101430.20
2019-02-04T08:45:50.350Z,101429.36
2019-02-04T08:48:17.828Z,101417.70
2019-02-04T08:50:45.280Z,101415.03
2019-02-04T08:53:13.042Z,101411.59
2019-02-04T08:55:40.500Z,101416.08
2019-02-04T08:58:08.159Z,101411.22
2019-02-04T09:00:35.687Z,101415.52
2019-02-04T09:03:03.198Z,101419.47
2019-02-04T09:05:30.628Z,101426.44
2019-02-04T09:07:58.039Z,101411.94
2019-02-04T09:10:30.312Z,101415.41
2019-02-04T09:12:58.315Z,101417.23
2019-02-04T09:15:25.858Z,101418.20
2019-02-04T09:17:53.430Z,101423.98
2019-02-04T09:20:20.867Z,101422.81
2019-02-04T09:22:48.410Z,101424.59
2019-02-04T09:25:16.663Z,101423.45
2019-02-04T09:27:44.145Z,101405.59
2019-02-04T09:30:19.618Z,101406.07
2019-02-04T09:32:47.301Z,101413.30
2019-02-04T09:35:15.775Z,101396.55
2019-02-04T09:37:43.233Z,101395.39
2019-02-04T09:40:16.958Z,101405.77
2019-02-04T09:42:44.893Z,101404.97
2019-02-04T09:45:13.804Z,101398.91
2019-02-04T09:47:41.323Z,101397.95
2019-02-04T09:50:21.515Z,101402.34
2019-02-04T09:52:40.569Z,101383.86
2019-02-04T09:55:12.571Z,101383.84
2019-02-04T09:57:40.388Z,101373.23
2019-02-04T10:00:10.201Z,101380.43
2019-02-04T10:02:37.638Z,101371.83
2019-02-04T10:05:06.154Z,101363.81
2019-02-04T10:07:33.612Z,101368.91
2019-02-04T10:10:01.013Z,101373.97
2019-02-04T10:12:28.534Z,101371.81
2019-02-04T10:14:56.453Z,101377.48
2019-02-04T10:17:24.015Z,101370.01
2019-02-04T10:19:51.511Z,101357.36
2019-02-04T10:22:19.071Z,101358.16
2019-02-04T10:24:46.547Z,101357.39
2019-02-04T10:27:13.996Z,101355.83
2019-02-04T10:29:41.529Z,101354.83
2019-02-04T10:32:09.088Z,101347.06
2019-02-04T10:34:36.681Z,101339.68
2019-02-04T10:37:04.230Z,101343.11
2019-02-04T10:39:31.722Z,101332.37
2019-02-04T10:41:59.151Z,101347.58
2019-02-04T10:44:26.526Z,101331.64
2019-02-04T10:46:54.307Z,101321.10
2019-02-04T10:49:21.735Z,101331.61
2019-02-04T10:51:49.266Z,101328.48
2019-02-04T10:54:16.833Z,101326.44
2019-02-04T10:56:44.233Z,101328.09
2019-02-04T10:59:11.727Z,101325.34
2019-02-04T11:01:39.194Z,101336.61
2019-02-04T11:04:06.892Z,101315.63
2019-02-04T11:06:34.424Z,101318.42
2019-02-04T11:09:01.937Z,101318.81
2019-02-04T11:11:29.430Z,101324.72
2019-02-04T11:13:57.013Z,101318.02
2019-02-04T11:16:24.904Z,101312.45
2019-02-04T11:18:52.592Z,101304.95
2019-02-04T11:21:20.027Z,101310.41
2019-02-04T11:23:47.487Z,101321.70
2019-02-04T11:26:15.513Z,101313.39
2019-02-04T11:28:43.616Z,101314.01
2019-02-04T11:31:11.812Z,101305.28
2019-02-04T11:33:39.891Z,101311.36
2019-02-04T11:36:07.946Z,101311.73
2019-02-04T11:38:36.207Z,101321.03
2019-02-04T11:41:04.033Z,101307.30
2019-02-04T11:43:31.563Z,101307.47
2019-02-04T11:45:59.074Z,101308.91
2019-02-04T11:48:26.716Z,101303.86
2019-02-04T11:50:54.212Z,101316.62
2019-02-04T11:53:32.250Z,101311.50
2019-02-04T11:55:50.979Z,101304.95
2019-02-04T11:58:18.472Z,101304.82
2019-02-04T12:00:45.994Z,101302.36
2019-02-04T12:03:14.512Z,101305.16
2019-02-04T12:05:41.946Z,101306.55
2019-02-04T12:08:09.996Z,101300.06
2019-02-04T12:10:40.690Z,101292.88
2019-02-04T12:13:08.099Z,101289.27
2019-02-04T12:15:35.836Z,101291.41
2019-02-04T12:18:03.486Z,101289.25
2019-02-04T12:20:30.967Z,101295.63
2019-02-04T12:29:09.416Z,101283.89
2019-02-04T12:31:37.377Z,101278.03
2019-02-04T12:34:07.284Z,101266.32
2019-02-04T12:36:34.886Z,101266.98
2019-02-04T12:39:10.599Z,101267.41
2019-02-04T12:41:37.872Z,101268.86
2019-02-04T12:44:07.066Z,101256.08
2019-02-04T12:46:34.666Z,101258.38
2019-02-04T12:49:42.075Z,101260.91
2019-02-04T12:53:04.660Z,101250.36
2019-02-04T12:55:32.511Z,101257.13
2019-02-04T12:58:00.152Z,101250.57
2019-02-04T13:04:13.481Z,101244.55
2019-02-04T13:29:07.306Z,101222.80
2019-02-04T13:34:47.976Z,101215.67
2019-02-04T15:55:05.805Z,101096.06
2019-02-04T16:14:15.817Z,101118.66
2019-02-04T16:15:42.972Z,101116.86
2019-02-04T16:18:49.980Z,101116.98
2019-02-04T16:19:01.816Z,101099.56
2019-02-04T17:25:23.435Z,101105.31
2019-02-04T17:39:15.295Z,101101.11
2019-02-04T18:03:50.408Z,101102.66
2019-02-04T18:07:31.898Z,101104.93
2019-02-04T18:32:39.979Z,101101.73
2019-02-04T18:39:13.251Z,101103.17
2019-02-04T18:42:02.610Z,101094.50
2019-02-04T18:45:33.998Z,101089.41
2019-02-04T18:49:19.785Z,101096.80
2019-02-04T19:27:53.358Z,101057.13
2019-02-04T21:28:44.186Z,101113.59
2019-02-04T21:31:12.132Z,101117.75
2019-02-04T21:33:40.175Z,101108.14
2019-02-04T21:36:08.751Z,101118.09
2019-02-04T21:38:37.861Z,101117.67
2019-02-04T21:41:05.842Z,101117.02
2019-02-04T21:43:33.706Z,101124.26
2019-02-04T21:46:01.759Z,101137.89
2019-02-04T21:48:30.651Z,101128.03
2019-02-04T21:50:58.726Z,101140.58
2019-02-04T21:53:26.696Z,101140.24
2019-02-04T21:55:54.611Z,101135.45
2019-02-04T21:58:22.586Z,101138.23
2019-02-04T22:00:50.387Z,101140.38
2019-02-04T22:03:18.286Z,101148.84
2019-02-04T22:05:46.310Z,101145.91
2019-02-04T22:08:13.891Z,101134.12
2019-02-04T22:10:42.091Z,101136.72
2019-02-04T22:13:09.756Z,101136.98
2019-02-04T22:15:38.026Z,101138.73
2019-02-04T22:18:06.186Z,101133.48
2019-02-04T22:20:34.192Z,101132.70
2019-02-04T22:23:01.718Z,101135.59
2019-02-04T22:25:29.245Z,101124.36
2019-02-04T22:27:56.636Z,101112.66
2019-02-04T22:30:25.921Z,101132.54
2019-02-04T22:32:53.401Z,101136.98
2019-02-04T22:35:20.987Z,101126.67
2019-02-04T22:37:48.617Z,101134.76
2019-02-04T22:40:29.743Z,101148.14
2019-02-04T22:42:57.898Z,101149.85
2019-02-04T22:45:25.461Z,101152.83
2019-02-04T22:47:52.873Z,101151.58
2019-02-04T22:50:27.161Z,101154.13
2019-02-04T22:52:54.958Z,101150.11
2019-02-04T22:55:31.475Z,101147.12
2019-02-04T22:57:52.255Z,101149.27
2019-02-04T23:00:58.778Z,101138.81
2019-02-04T23:03:26.601Z,101136.22
2019-02-04T23:05:54.182Z,101126.32
2019-02-04T23:08:21.945Z,101125.28
2019-02-04T23:10:49.526Z,101120.71
2019-02-04T23:13:17.087Z,101128.18
2019-02-04T23:15:44.637Z,101130.78
2019-02-04T23:18:12.473Z,101127.67
2019-02-04T23:20:40.066Z,101127.63
2019-02-04T23:23:08.042Z,101148.02
2019-02-04T23:25:42.976Z,101149.31
2019-02-04T23:28:05.326Z,101153.22
2019-02-04T23:30:32.916Z,101152.88
2019-02-04T23:33:00.917Z,101152.25
2019-02-04T23:35:28.366Z,101151.08
2019-02-04T23:37:55.788Z,101150.52
2019-02-04T23:40:23.228Z,101142.72
2019-02-04T23:42:50.756Z,101142.61
2019-02-04T23:45:18.310Z,101146.38
2019-02-04T23:47:45.781Z,101157.91
2019-02-04T23:50:13.883Z,101145.49
2019-02-04T23:52:41.336Z,101134.63
2019-02-04T23:55:08.966Z,101128.26
2019-02-04T23:57:36.486Z,101129.73
